createdAt,value
2023-04-24T00:02:03.377Z,67.01
2023-04-24T00:04:36.981Z,67.03
2023-04-24T00:07:10.170Z,67.85
2023-04-24T00:09:43.710Z,67.70
2023-04-24T00:12:17.742Z,67.67
2023-04-24T00:14:52.774Z,67.60
2023-04-24T00:17:25.170Z,68.14
2023-04-24T00:19:59.730Z,68.22
2023-04-24T00:22:34.307Z,68.80
2023-04-24T00:25:08.526Z,68.92
2023-04-24T00:27:41.169Z,69.32
2023-04-24T00:30:15.667Z,69.14
2023-04-24T00:32:48.940Z,69.02
2023-04-24T00:35:22.726Z,69.40
2023-04-24T00:37:56.369Z,69.61
2023-04-24T00:40:29.253Z,68.79
2023-04-24T00:43:01.807Z,69.44
2023-04-24T00:45:34.512Z,69.42
2023-04-24T00:48:06.929Z,69.55
2023-04-24T00:50:42.712Z,69.89
2023-04-24T00:53:18.911Z,70.26
2023-04-24T00:55:52.053Z,70.35
2023-04-24T00:58:25.288Z,70.31
2023-04-24T01:00:58.775Z,70.66
2023-04-24T01:03:34.006Z,70.64
2023-04-24T01:06:09.103Z,70.53
2023-04-24T01:08:44.102Z,70.64
2023-04-24T01:11:17.887Z,70.97
2023-04-24T01:13:51.830Z,71.12
2023-04-24T01:16:24.815Z,71.63
2023-04-24T01:18:57.743Z,71.71
2023-04-24T01:21:32.944Z,71.20
2023-04-24T01:24:07.778Z,71.22
2023-04-24T01:26:40.570Z,71.46
2023-04-24T01:29:15.614Z,71.46
2023-04-24T01:31:51.246Z,71.59
2023-04-24T01:34:23.960Z,71.72
2023-04-24T01:36:57.640Z,71.92
2023-04-24T01:39:30.296Z,71.89
2023-04-24T01:42:03.960Z,71.64
2023-04-24T01:44:37.618Z,71.43
2023-04-24T01:47:10.716Z,71.47
2023-04-24T01:49:43.714Z,71.91
2023-04-24T01:52:20.682Z,71.81
2023-04-24T01:54:57.053Z,71.83
2023-04-24T01:57:31.823Z,72.61
2023-04-24T02:00:08.678Z,72.59
2023-04-24T02:02:48.616Z,72.69
2023-04-24T02:05:23.562Z,72.61
2023-04-24T02:07:57.270Z,72.72
2023-04-24T02:10:29.911Z,72.71
2023-04-24T02:13:06.099Z,72.56
2023-04-24T02:15:38.710Z,72.05
2023-04-24T02:18:11.470Z,71.91
2023-04-24T02:20:45.666Z,72.38
2023-04-24T02:23:19.588Z,72.53
2023-04-24T02:25:54.420Z,72.68
2023-04-24T02:28:26.776Z,72.75
2023-04-24T02:31:01.672Z,72.72
2023-04-24T02:33:34.433Z,72.77
2023-04-24T02:36:09.230Z,72.62
2023-04-24T02:38:41.862Z,73.20
2023-04-24T02:41:14.786Z,71.95
2023-04-24T02:43:49.843Z,73.36
2023-04-24T02:46:22.183Z,73.97
2023-04-24T02:48:57.280Z,74.54
2023-04-24T02:51:30.284Z,74.87
2023-04-24T02:54:03.129Z,74.71
2023-04-24T02:56:37.492Z,74.38
2023-04-24T02:59:11.710Z,74.23
2023-04-24T03:01:45.520Z,74.42
2023-04-24T03:04:21.628Z,74.45
2023-04-24T03:06:56.053Z,74.71
2023-04-24T03:09:28.723Z,74.72
2023-04-24T03:12:02.796Z,75.29
2023-04-24T03:14:37.128Z,75.47
2023-04-24T03:17:10.022Z,75.86
2023-04-24T03:19:43.817Z,75.83
2023-04-24T03:22:17.228Z,75.89
2023-04-24T03:24:49.796Z,76.01
2023-04-24T03:27:25.351Z,75.99
2023-04-24T03:30:03.645Z,75.93
2023-04-24T03:32:47.335Z,74.98
2023-04-24T03:35:23.234Z,75.09
2023-04-24T03:37:56.325Z,74.81
2023-04-24T03:40:48.031Z,74.92
2023-04-24T03:43:45.822Z,74.36
2023-04-24T03:46:34.778Z,74.18
2023-04-24T03:49:09.005Z,74.11
2023-04-24T03:51:47.812Z,73.69
2023-04-24T03:54:24.135Z,73.52
2023-04-24T03:56:57.625Z,73.36
2023-04-24T03:59:34.398Z,72.91
2023-04-24T04:02:27.867Z,72.75
2023-04-24T04:05:00.654Z,72.44
2023-04-24T04:07:37.327Z,72.52
2023-04-24T04:10:11.599Z,72.27
2023-04-24T04:12:46.572Z,71.81
2023-04-24T04:15:19.210Z,71.59
2023-04-24T04:17:51.777Z,71.20
2023-04-24T04:20:25.395Z,71.09
2023-04-24T04:22:58.077Z,69.61
2023-04-24T04:25:41.491Z,68.59
2023-04-24T04:28:23.927Z,67.29
2023-04-24T04:30:56.935Z,65.65
2023-04-24T04:33:29.941Z,63.46
2023-04-24T04:36:06.921Z,60.28
2023-04-24T04:38:43.061Z,58.70
2023-04-24T04:41:27.503Z,56.30
2023-04-24T04:44:00.560Z,54.02
2023-04-24T04:46:35.545Z,52.54
2023-04-24T04:49:18.174Z,50.08
2023-04-24T04:51:53.764Z,49.46
2023-04-24T04:54:26.826Z,48.68
2023-04-24T04:57:00.064Z,46.14
2023-04-24T04:59:32.718Z,45.26
2023-04-24T05:02:14.309Z,43.92
2023-04-24T05:04:47.478Z,42.89
2023-04-24T05:07:20.953Z,40.51
2023-04-24T05:09:58.247Z,39.73
2023-04-24T05:12:30.995Z,38.87
2023-04-24T05:15:04.289Z,37.01
2023-04-24T05:17:37.140Z,38.12
2023-04-24T05:20:11.677Z,38.84
2023-04-24T05:22:45.967Z,37.11
2023-04-24T05:25:19.933Z,35.37
2023-04-24T05:27:58.765Z,35.38
2023-04-24T05:30:31.571Z,34.88
2023-04-24T05:33:04.807Z,34.91
2023-04-24T05:35:47.252Z,35.06
2023-04-24T05:38:20.878Z,34.28
2023-04-24T05:40:54.873Z,35.46
2023-04-24T05:43:27.725Z,37.35
2023-04-24T05:46:01.699Z,38.48
2023-04-24T05:48:34.354Z,39.44
2023-04-24T05:51:09.005Z,40.26
2023-04-24T05:53:41.450Z,40.02
2023-04-24T05:56:15.045Z,40.85
2023-04-24T05:58:47.786Z,41.30
2023-04-24T06:01:20.928Z,42.00
2023-04-24T06:03:58.602Z,42.41
2023-04-24T06:06:36.980Z,42.54
2023-04-24T06:09:09.922Z,41.93
2023-04-24T06:11:42.930Z,42.44
2023-04-24T06:14:16.577Z,43.47
2023-04-24T06:17:11.482Z,44.07
2023-04-24T06:19:51.250Z,44.60
2023-04-24T06:22:25.186Z,45.47
2023-04-24T06:24:59.449Z,45.40
2023-04-24T06:27:34.444Z,46.11
2023-04-24T06:30:09.623Z,46.41
2023-04-24T06:32:43.258Z,45.81
2023-04-24T06:35:15.636Z,45.56
2023-04-24T06:37:49.144Z,45.55
2023-04-24T06:40:21.981Z,44.80
2023-04-24T06:42:54.255Z,43.73
2023-04-24T06:45:26.461Z,42.04
2023-04-24T06:47:59.496Z,39.74
2023-04-24T06:50:31.884Z,38.25
2023-04-24T06:53:04.320Z,37.39
2023-04-24T06:55:37.906Z,37.52
2023-04-24T06:58:09.366Z,37.20
2023-04-24T07:00:41.889Z,37.57
2023-04-24T07:03:17.338Z,37.62
2023-04-24T07:05:54.578Z,38.31
2023-04-24T07:08:27.619Z,39.12
2023-04-24T07:10:59.892Z,40.11
2023-04-24T07:13:32.255Z,41.21
2023-04-24T07:16:05.193Z,42.87
2023-04-24T07:18:39.686Z,43.50
2023-04-24T07:21:12.510Z,44.09
2023-04-24T07:23:45.290Z,44.35
2023-04-24T07:26:18.206Z,44.74
2023-04-24T07:28:50.875Z,44.61
2023-04-24T07:31:23.405Z,44.30
2023-04-24T07:33:59.279Z,43.66
2023-04-24T07:36:34.547Z,42.91
2023-04-24T07:39:08.495Z,42.92
2023-04-24T07:41:43.632Z,43.51
2023-04-24T07:44:16.798Z,43.47
2023-04-24T07:46:53.666Z,43.27
2023-04-24T07:49:26.340Z,41.83
2023-04-24T07:51:58.816Z,41.49
2023-04-24T07:54:31.433Z,40.31
2023-04-24T07:57:04.013Z,39.62
2023-04-24T07:59:36.505Z,39.29
2023-04-24T08:02:09.078Z,38.98
2023-04-24T08:04:41.984Z,38.35
2023-04-24T08:07:18.197Z,37.97
2023-04-24T08:09:52.111Z,38.54
2023-04-24T08:12:25.824Z,37.43
2023-04-24T08:14:58.284Z,37.70
2023-04-24T08:17:31.960Z,38.54
2023-04-24T08:20:06.406Z,39.22
2023-04-24T08:22:38.988Z,40.16
2023-04-24T08:25:13.404Z,40.16
2023-04-24T08:27:46.566Z,40.25
2023-04-24T08:30:19.646Z,39.90
2023-04-24T08:32:53.357Z,39.99
2023-04-24T08:35:26.130Z,40.17
2023-04-24T08:37:58.442Z,40.37
2023-04-24T08:40:36.511Z,41.03
2023-04-24T08:43:09.442Z,41.98
2023-04-24T08:45:42.690Z,42.27
2023-04-24T08:48:27.726Z,43.01
2023-04-24T08:51:05.405Z,43.47
2023-04-24T08:53:38.519Z,43.98
2023-04-24T08:56:11.749Z,43.46
2023-04-24T08:58:47.371Z,44.55
2023-04-24T09:01:21.239Z,44.77
2023-04-24T09:03:59.243Z,43.56
2023-04-24T09:06:36.154Z,43.60
2023-04-24T09:09:08.766Z,40.78
2023-04-24T09:11:42.285Z,39.54
2023-04-24T09:14:16.986Z,39.52
2023-04-24T09:16:50.755Z,40.55
2023-04-24T09:19:23.519Z,38.12
2023-04-24T09:21:56.947Z,38.84
2023-04-24T09:24:27.756Z,38.64
2023-04-24T09:27:03.844Z,39.08
2023-04-24T09:29:36.352Z,37.40
2023-04-24T09:32:26.228Z,36.77
2023-04-24T09:35:13.519Z,36.77
2023-04-24T09:37:48.089Z,36.05
2023-04-24T09:40:22.516Z,37.80
2023-04-24T09:42:59.113Z,35.89
2023-04-24T09:45:39.375Z,35.07
2023-04-24T09:48:14.345Z,35.14
2023-04-24T09:50:50.991Z,35.37
2023-04-24T09:53:28.602Z,36.07
2023-04-24T09:56:09.382Z,33.71
2023-04-24T09:58:43.057Z,33.69
2023-04-24T10:01:17.718Z,33.89
2023-04-24T10:03:52.990Z,32.66
2023-04-24T10:06:33.070Z,33.74
2023-04-24T10:09:06.644Z,34.37
2023-04-24T10:11:43.808Z,34.09
2023-04-24T10:14:19.208Z,33.60
2023-04-24T10:16:55.234Z,32.77
2023-04-24T10:19:29.454Z,33.01
2023-04-24T10:22:03.009Z,33.34
2023-04-24T10:24:37.328Z,33.39
2023-04-24T10:27:10.514Z,33.40
2023-04-24T10:29:41.417Z,35.28
2023-04-24T10:32:14.904Z,32.05
2023-04-24T10:34:47.598Z,32.46
2023-04-24T10:37:19.126Z,34.54
2023-04-24T10:39:56.050Z,31.00
2023-04-24T10:42:32.051Z,32.25
2023-04-24T10:45:11.637Z,29.76
2023-04-24T10:48:04.340Z,29.38
2023-04-24T10:50:50.705Z,31.91
2023-04-24T10:53:25.424Z,31.48
2023-04-24T10:56:05.036Z,30.89
2023-04-24T10:58:46.158Z,31.06
2023-04-24T11:01:30.494Z,29.50
2023-04-24T11:04:06.097Z,31.46
2023-04-24T11:06:39.860Z,29.93
2023-04-24T11:09:14.257Z,29.29
2023-04-24T11:11:51.151Z,28.70
2023-04-24T11:14:23.569Z,28.75
2023-04-24T11:16:57.500Z,28.93
2023-04-24T11:19:32.287Z,28.99
2023-04-24T11:22:06.995Z,28.52
2023-04-24T11:24:52.166Z,29.02
2023-04-24T11:27:32.160Z,30.19
2023-04-24T11:30:06.133Z,29.91
2023-04-24T11:32:41.546Z,30.13
2023-04-24T11:35:18.045Z,29.19
2023-04-24T11:38:13.084Z,30.39
2023-04-24T11:40:47.236Z,30.56
2023-04-24T11:43:21.359Z,30.27
2023-04-24T11:45:55.404Z,30.12
2023-04-24T11:48:28.257Z,30.50
2023-04-24T11:51:04.063Z,31.39
2023-04-24T11:53:38.565Z,31.51
2023-04-24T11:56:12.605Z,31.18
2023-04-24T11:58:45.950Z,31.22
2023-04-24T12:01:18.304Z,31.95
2023-04-24T12:04:02.237Z,32.65
2023-04-24T12:06:35.248Z,33.25
2023-04-24T12:09:17.775Z,33.14
2023-04-24T12:11:59.286Z,32.86
2023-04-24T12:14:31.738Z,32.44
2023-04-24T12:17:07.000Z,33.18
2023-04-24T12:19:47.965Z,33.79
2023-04-24T12:22:21.037Z,34.33
2023-04-24T12:25:04.312Z,34.99
2023-04-24T12:27:37.088Z,35.81
2023-04-24T12:30:15.371Z,36.26
2023-04-24T12:32:51.564Z,36.22
2023-04-24T12:35:28.792Z,36.21
2023-04-24T12:38:10.243Z,36.48
2023-04-24T12:40:44.228Z,36.58
2023-04-24T12:43:20.566Z,36.53
2023-04-24T12:45:53.528Z,36.84
2023-04-24T12:48:26.993Z,37.64
2023-04-24T12:51:02.834Z,38.29
2023-04-24T12:53:35.501Z,39.04
2023-04-24T12:56:10.425Z,39.26
2023-04-24T12:58:44.695Z,39.78
2023-04-24T13:01:17.096Z,40.19
2023-04-24T13:03:50.475Z,40.05
2023-04-24T13:06:27.711Z,40.56
2023-04-24T13:09:00.419Z,40.21
2023-04-24T13:11:32.987Z,40.07
2023-04-24T13:14:05.365Z,40.47
2023-04-24T13:16:47.686Z,39.90
2023-04-24T13:19:20.326Z,39.04
2023-04-24T13:21:53.463Z,38.88
2023-04-24T13:24:27.223Z,39.08
2023-04-24T13:27:00.298Z,38.55
2023-04-24T13:29:33.922Z,38.89
2023-04-24T13:32:07.017Z,38.12
2023-04-24T13:34:40.320Z,37.49
2023-04-24T13:37:18.427Z,37.41
2023-04-24T13:39:58.789Z,37.10
2023-04-24T13:42:31.686Z,37.04
2023-04-24T13:45:21.338Z,36.46
2023-04-24T13:48:04.298Z,35.65
2023-04-24T13:50:36.669Z,35.06
2023-04-24T13:53:09.407Z,34.66
2023-04-24T13:55:41.880Z,34.94
2023-04-24T13:58:16.211Z,35.14
2023-04-24T14:00:51.969Z,35.76
2023-04-24T14:03:25.190Z,35.24
2023-04-24T14:05:58.792Z,35.22
2023-04-24T14:08:31.261Z,34.32
2023-04-24T14:11:04.629Z,34.42
2023-04-24T14:13:38.073Z,34.93
2023-04-24T14:16:11.134Z,35.41
2023-04-24T14:18:46.198Z,36.07
2023-04-24T14:21:18.618Z,35.56
2023-04-24T14:23:51.688Z,35.83
2023-04-24T14:26:25.831Z,35.61
2023-04-24T14:29:11.642Z,36.45
2023-04-24T14:31:49.892Z,35.84
2023-04-24T14:34:22.738Z,35.28
2023-04-24T14:36:58.684Z,35.39
2023-04-24T14:39:31.395Z,32.60
2023-04-24T14:42:04.027Z,33.46
2023-04-24T14:44:42.768Z,33.06
2023-04-24T14:47:16.236Z,32.21
2023-04-24T14:49:51.552Z,32.27
2023-04-24T14:52:23.899Z,33.39
2023-04-24T14:54:56.374Z,32.97
2023-04-24T14:57:29.247Z,33.28
2023-04-24T15:00:02.162Z,32.79
2023-04-24T15:02:35.150Z,34.18
2023-04-24T15:05:10.208Z,34.61
2023-04-24T15:07:43.751Z,37.18
2023-04-24T15:10:18.917Z,34.29
2023-04-24T15:12:49.828Z,33.88
2023-04-24T15:15:22.553Z,33.32
2023-04-24T15:17:56.438Z,33.84
2023-04-24T15:20:29.226Z,33.48
2023-04-24T15:23:03.439Z,32.81
2023-04-24T15:25:39.157Z,33.28
2023-04-24T15:28:11.780Z,32.77
2023-04-24T15:30:45.957Z,33.13
2023-04-24T15:33:19.159Z,34.27
2023-04-24T15:35:52.512Z,35.12
2023-04-24T15:38:25.173Z,35.77
2023-04-24T15:40:57.623Z,35.54
2023-04-24T15:43:35.448Z,35.17
2023-04-24T15:46:11.374Z,37.00
2023-04-24T15:48:46.107Z,37.65
2023-04-24T15:51:18.461Z,35.73
2023-04-24T15:53:51.444Z,36.24
2023-04-24T15:56:24.606Z,36.39
2023-04-24T15:58:57.059Z,36.80
2023-04-24T16:01:29.703Z,37.01
2023-04-24T16:04:02.488Z,37.38
2023-04-24T16:06:35.148Z,37.64
2023-04-24T16:09:08.826Z,39.21
2023-04-24T16:11:41.763Z,39.25
2023-04-24T16:14:14.139Z,38.74
2023-04-24T16:16:49.426Z,39.96
2023-04-24T16:19:21.914Z,39.00
2023-04-24T16:21:56.670Z,39.08
2023-04-24T16:24:29.598Z,39.23
2023-04-24T16:27:04.635Z,39.74
2023-04-24T16:29:37.200Z,40.30
2023-04-24T16:32:10.588Z,40.51
2023-04-24T16:34:43.345Z,40.91
2023-04-24T16:37:16.611Z,41.27
2023-04-24T16:39:55.299Z,41.37
2023-04-24T16:42:33.573Z,42.42
2023-04-24T16:45:08.642Z,41.80
2023-04-24T16:47:43.721Z,42.24
2023-04-24T16:50:16.875Z,43.61
2023-04-24T16:52:54.099Z,43.43
2023-04-24T16:55:27.810Z,44.11
2023-04-24T16:57:58.779Z,41.57
2023-04-24T17:00:31.647Z,42.75
2023-04-24T17:03:06.783Z,43.47
2023-04-24T17:05:39.625Z,45.11
2023-04-24T17:08:12.676Z,44.81
2023-04-24T17:10:46.313Z,45.73
2023-04-24T17:13:18.962Z,45.71
2023-04-24T17:15:51.315Z,46.35
2023-04-24T17:18:24.848Z,46.85
2023-04-24T17:20:57.215Z,47.93
2023-04-24T17:23:29.686Z,47.87
2023-04-24T17:26:02.321Z,48.31
2023-04-24T17:28:36.654Z,49.47
2023-04-24T17:31:10.084Z,50.75
2023-04-24T17:33:42.542Z,50.68
2023-04-24T17:36:14.978Z,51.48
2023-04-24T17:38:48.461Z,51.97
2023-04-24T17:41:21.837Z,51.83
2023-04-24T17:43:54.461Z,52.47
2023-04-24T17:46:27.467Z,52.66
2023-04-24T17:49:00.296Z,53.31
2023-04-24T17:51:33.003Z,53.68
2023-04-24T17:54:05.622Z,54.11
2023-04-24T17:56:38.529Z,53.92
2023-04-24T17:59:12.360Z,54.32
2023-04-24T18:01:47.959Z,54.76
2023-04-24T18:04:20.735Z,55.20
2023-04-24T18:06:53.498Z,55.10
2023-04-24T18:09:26.307Z,55.00
2023-04-24T18:11:58.646Z,55.49
2023-04-24T18:14:31.677Z,55.65
2023-04-24T18:17:05.489Z,56.15
2023-04-24T18:19:38.769Z,56.08
2023-04-24T18:22:13.622Z,55.74
2023-04-24T18:24:50.612Z,56.66
2023-04-24T18:27:29.412Z,55.86
2023-04-24T18:30:03.776Z,56.17
2023-04-24T18:32:36.409Z,57.56
2023-04-24T18:35:10.957Z,57.16
2023-04-24T18:37:43.439Z,58.36
2023-04-24T18:40:18.685Z,57.77
2023-04-24T18:42:51.661Z,58.10
2023-04-24T18:45:24.411Z,57.87
2023-04-24T18:47:57.211Z,57.70
2023-04-24T18:50:32.000Z,57.54
2023-04-24T18:53:04.529Z,58.07
2023-04-24T18:55:37.504Z,56.55
2023-04-24T18:58:12.685Z,56.25
2023-04-24T19:00:48.064Z,55.97
2023-04-24T19:03:20.995Z,55.34
2023-04-24T19:05:54.283Z,54.51
2023-04-24T19:08:26.610Z,54.02
2023-04-24T19:10:59.063Z,53.24
2023-04-24T19:13:31.556Z,52.88
2023-04-24T19:16:04.823Z,51.79
2023-04-24T19:18:38.178Z,51.42
2023-04-24T19:21:10.988Z,51.15
2023-04-24T19:23:46.648Z,50.54
2023-04-24T19:26:19.229Z,50.08
2023-04-24T19:28:53.781Z,50.23
2023-04-24T19:31:28.888Z,49.70
2023-04-24T19:34:06.568Z,49.59
2023-04-24T19:36:43.957Z,49.36
2023-04-24T19:39:17.196Z,49.20
2023-04-24T19:41:51.162Z,49.72
2023-04-24T19:44:23.894Z,50.61
2023-04-24T19:46:56.281Z,50.52
2023-04-24T19:49:29.220Z,50.80
2023-04-24T19:52:02.184Z,50.99
2023-04-24T19:54:36.755Z,51.66
2023-04-24T19:57:11.553Z,53.05
2023-04-24T19:59:44.182Z,54.21
2023-04-24T20:02:17.064Z,52.64
2023-04-24T20:04:51.089Z,54.40
2023-04-24T20:07:24.270Z,56.73
2023-04-24T20:09:58.124Z,57.81
2023-04-24T20:12:36.376Z,58.52
2023-04-24T20:15:12.111Z,59.37
2023-04-24T20:17:48.122Z,59.19
2023-04-24T20:20:20.770Z,59.72
2023-04-24T20:22:53.482Z,60.37
2023-04-24T20:25:26.220Z,60.74
2023-04-24T20:27:58.862Z,61.16
2023-04-24T20:30:32.729Z,60.84
2023-04-24T20:33:05.584Z,61.52
2023-04-24T20:35:38.275Z,61.76
2023-04-24T20:38:11.725Z,62.14
2023-04-24T20:40:57.279Z,62.15
2023-04-24T20:43:31.155Z,62.70
2023-04-24T20:46:04.037Z,63.08
2023-04-24T20:48:36.705Z,63.28
2023-04-24T20:51:09.330Z,63.28
2023-04-24T20:53:49.754Z,63.70
2023-04-24T20:56:24.945Z,63.51
2023-04-24T20:58:59.155Z,64.19
2023-04-24T21:01:30.581Z,61.69
2023-04-24T21:04:05.994Z,63.64
2023-04-24T21:06:38.553Z,64.45
2023-04-24T21:09:12.635Z,64.90
2023-04-24T21:11:46.517Z,65.27
2023-04-24T21:14:22.052Z,65.25
2023-04-24T21:16:56.722Z,65.79
2023-04-24T21:19:29.851Z,65.72
2023-04-24T21:22:02.425Z,65.87
2023-04-24T21:24:34.952Z,65.71
2023-04-24T21:27:08.117Z,65.38
2023-04-24T21:29:40.686Z,65.71
2023-04-24T21:32:19.369Z,65.46
2023-04-24T21:34:52.199Z,65.92
2023-04-24T21:37:24.541Z,66.12
2023-04-24T21:39:57.267Z,66.33
2023-04-24T21:42:32.495Z,66.38
2023-04-24T21:45:05.892Z,67.00
2023-04-24T21:47:38.629Z,66.76
2023-04-24T21:50:15.377Z,67.08
2023-04-24T21:52:49.103Z,67.44
2023-04-24T21:55:23.710Z,67.53
2023-04-24T21:57:56.178Z,68.11
2023-04-24T22:00:29.439Z,68.37
2023-04-24T22:03:01.945Z,68.26
2023-04-24T22:05:35.632Z,68.69
2023-04-24T22:08:08.228Z,68.98
2023-04-24T22:10:47.296Z,69.35
2023-04-24T22:13:19.760Z,69.11
2023-04-24T22:15:55.113Z,69.58
2023-04-24T22:18:36.570Z,69.97
2023-04-24T22:21:17.947Z,69.73
2023-04-24T22:23:50.857Z,69.90
2023-04-24T22:26:24.313Z,70.07
2023-04-24T22:28:56.780Z,70.67
2023-04-24T22:31:29.610Z,70.93
2023-04-24T22:34:04.069Z,71.08
2023-04-24T22:36:37.333Z,71.42
2023-04-24T22:39:10.858Z,71.64
2023-04-24T22:41:44.490Z,71.58
2023-04-24T22:44:21.873Z,72.13
2023-04-24T22:46:54.464Z,72.03
2023-04-24T22:49:28.456Z,72.16
2023-04-24T22:51:59.530Z,69.91
2023-04-24T22:54:35.420Z,71.93
2023-04-24T22:57:08.368Z,72.37
2023-04-24T22:59:41.039Z,72.74
2023-04-24T23:02:16.177Z,72.48
2023-04-24T23:04:49.577Z,73.05
2023-04-24T23:07:22.512Z,73.02
2023-04-24T23:09:56.184Z,73.24
2023-04-24T23:12:32.977Z,72.98
2023-04-24T23:15:09.244Z,73.21
2023-04-24T23:17:42.623Z,73.26
2023-04-24T23:20:19.782Z,74.28
2023-04-24T23:22:53.820Z,73.91
2023-04-24T23:25:26.481Z,73.96
2023-04-24T23:27:58.988Z,74.69
2023-04-24T23:30:31.658Z,75.50
2023-04-24T23:33:04.549Z,75.76
2023-04-24T23:35:37.601Z,75.99
2023-04-24T23:38:12.592Z,76.09
2023-04-24T23:40:59.259Z,75.91
2023-04-24T23:43:31.920Z,75.34
2023-04-24T23:46:04.879Z,75.37
2023-04-24T23:48:37.859Z,76.43
2023-04-24T23:51:11.818Z,76.61
2023-04-24T23:53:44.730Z,76.35
2023-04-24T23:56:19.539Z,76.33
2023-04-24T23:58:52.692Z,76.10
